sensor_id;sensor_type;location;lat;lon;timestamp;P1;durP1;ratioP1;P2;durP2;ratioP2
10920;SDS011;5513;50.580;8.818;2022-11-20T00:01:36;15.93;;;9.77;;
10920;SDS011;5513;50.580;8.818;2022-11-20T00:04:06;16.03;;;9.87;;
10920;SDS011;5513;50.580;8.818;2022-11-20T00:06:36;14.63;;;9.90;;
10920;SDS011;5513;50.580;8.818;2022-11-20T00:09:04;13.57;;;9.53;;
10920;SDS011;5513;50.580;8.818;2022-11-20T00:11:33;14.13;;;10.07;;
10920;SDS011;5513;50.580;8.818;2022-11-20T00:14:01;15.07;;;10.20;;
10920;SDS011;5513;50.580;8.818;2022-11-20T00:16:31;14.00;;;9.53;;
10920;SDS011;5513;50.580;8.818;2022-11-20T00:19:00;13.93;;;9.27;;
10920;SDS011;5513;50.580;8.818;2022-11-20T00:21:30;14.10;;;9.30;;
10920;SDS011;5513;50.580;8.818;2022-11-20T00:23:59;17.33;;;10.73;;
10920;SDS011;5513;50.580;8.818;2022-11-20T00:26:27;15.10;;;9.73;;
10920;SDS011;5513;50.580;8.818;2022-11-20T00:28:57;14.87;;;9.77;;
10920;SDS011;5513;50.580;8.818;2022-11-20T00:31:27;14.43;;;10.37;;
10920;SDS011;5513;50.580;8.818;2022-11-20T00:33:57;15.47;;;10.27;;
10920;SDS011;5513;50.580;8.818;2022-11-20T00:36:26;16.27;;;10.10;;
10920;SDS011;5513;50.580;8.818;2022-11-20T00:38:57;14.50;;;10.27;;
10920;SDS011;5513;50.580;8.818;2022-11-20T00:41:26;15.40;;;10.63;;
10920;SDS011;5513;50.580;8.818;2022-11-20T00:43:56;14.27;;;9.50;;
10920;SDS011;5513;50.580;8.818;2022-11-20T00:46:25;16.43;;;10.37;;
10920;SDS011;5513;50.580;8.818;2022-11-20T00:48:54;15.10;;;10.33;;
10920;SDS011;5513;50.580;8.818;2022-11-20T00:51:24;14.63;;;9.93;;
10920;SDS011;5513;50.580;8.818;2022-11-20T00:53:54;13.27;;;9.67;;
10920;SDS011;5513;50.580;8.818;2022-11-20T00:56:26;15.20;;;9.93;;
10920;SDS011;5513;50.580;8.818;2022-11-20T00:58:59;14.70;;;9.50;;
10920;SDS011;5513;50.580;8.818;2022-11-20T01:01:28;17.83;;;10.77;;
10920;SDS011;5513;50.580;8.818;2022-11-20T01:03:57;15.83;;;10.60;;
10920;SDS011;5513;50.580;8.818;2022-11-20T01:06:28;14.83;;;10.20;;
10920;SDS011;5513;50.580;8.818;2022-11-20T01:09:00;14.37;;;10.27;;
10920;SDS011;5513;50.580;8.818;2022-11-20T01:11:31;16.03;;;11.03;;
10920;SDS011;5513;50.580;8.818;2022-11-20T01:14:02;16.63;;;10.70;;
10920;SDS011;5513;50.580;8.818;2022-11-20T01:16:33;19.10;;;11.03;;
10920;SDS011;5513;50.580;8.818;2022-11-20T01:19:04;18.70;;;12.03;;
10920;SDS011;5513;50.580;8.818;2022-11-20T01:21:35;14.77;;;10.50;;
10920;SDS011;5513;50.580;8.818;2022-11-20T01:24:07;16.47;;;10.93;;
10920;SDS011;5513;50.580;8.818;2022-11-20T01:26:40;17.53;;;11.07;;
10920;SDS011;5513;50.580;8.818;2022-11-20T01:29:10;16.23;;;10.60;;
10920;SDS011;5513;50.580;8.818;2022-11-20T01:31:46;16.77;;;10.87;;
10920;SDS011;5513;50.580;8.818;2022-11-20T01:34:16;17.37;;;11.43;;
10920;SDS011;5513;50.580;8.818;2022-11-20T01:36:45;16.43;;;10.47;;
10920;SDS011;5513;50.580;8.818;2022-11-20T01:39:17;15.57;;;10.37;;
10920;SDS011;5513;50.580;8.818;2022-11-20T01:41:48;16.03;;;10.67;;
10920;SDS011;5513;50.580;8.818;2022-11-20T01:44:47;18.13;;;11.23;;
10920;SDS011;5513;50.580;8.818;2022-11-20T01:47:21;18.13;;;11.07;;
10920;SDS011;5513;50.580;8.818;2022-11-20T01:49:55;16.30;;;11.07;;
10920;SDS011;5513;50.580;8.818;2022-11-20T01:52:27;19.30;;;11.17;;
10920;SDS011;5513;50.580;8.818;2022-11-20T01:55:03;16.40;;;10.57;;
10920;SDS011;5513;50.580;8.818;2022-11-20T01:57:35;15.80;;;10.60;;
10920;SDS011;5513;50.580;8.818;2022-11-20T02:00:05;17.33;;;11.07;;
10920;SDS011;5513;50.580;8.818;2022-11-20T02:02:36;14.67;;;10.37;;
10920;SDS011;5513;50.580;8.818;2022-11-20T02:05:09;14.63;;;10.17;;
10920;SDS011;5513;50.580;8.818;2022-11-20T02:07:44;14.57;;;10.43;;
10920;SDS011;5513;50.580;8.818;2022-11-20T02:10:16;15.77;;;10.43;;
10920;SDS011;5513;50.580;8.818;2022-11-20T02:12:44;15.53;;;10.50;;
10920;SDS011;5513;50.580;8.818;2022-11-20T02:15:31;15.60;;;10.43;;
10920;SDS011;5513;50.580;8.818;2022-11-20T02:18:00;18.23;;;11.53;;
10920;SDS011;5513;50.580;8.818;2022-11-20T02:20:30;16.00;;;10.57;;
10920;SDS011;5513;50.580;8.818;2022-11-20T02:22:59;16.57;;;10.80;;
10920;SDS011;5513;50.580;8.818;2022-11-20T02:25:40;14.97;;;10.53;;
10920;SDS011;5513;50.580;8.818;2022-11-20T02:28:11;16.30;;;11.10;;
10920;SDS011;5513;50.580;8.818;2022-11-20T02:30:40;15.70;;;11.27;;
10920;SDS011;5513;50.580;8.818;2022-11-20T02:33:08;15.83;;;11.20;;
10920;SDS011;5513;50.580;8.818;2022-11-20T02:35:44;18.47;;;11.87;;
10920;SDS011;5513;50.580;8.818;2022-11-20T02:38:15;17.17;;;11.17;;
10920;SDS011;5513;50.580;8.818;2022-11-20T02:40:45;17.80;;;11.90;;
10920;SDS011;5513;50.580;8.818;2022-11-20T02:43:19;16.83;;;11.07;;
10920;SDS011;5513;50.580;8.818;2022-11-20T02:45:48;16.20;;;10.67;;
10920;SDS011;5513;50.580;8.818;2022-11-20T02:48:17;16.27;;;11.60;;
10920;SDS011;5513;50.580;8.818;2022-11-20T02:50:51;16.30;;;10.63;;
10920;SDS011;5513;50.580;8.818;2022-11-20T02:53:19;14.10;;;9.77;;
10920;SDS011;5513;50.580;8.818;2022-11-20T02:55:50;16.10;;;10.13;;
10920;SDS011;5513;50.580;8.818;2022-11-20T02:58:18;15.20;;;10.27;;
10920;SDS011;5513;50.580;8.818;2022-11-20T03:00:46;17.07;;;10.57;;
10920;SDS011;5513;50.580;8.818;2022-11-20T03:03:14;14.73;;;10.57;;
10920;SDS011;5513;50.580;8.818;2022-11-20T03:05:43;16.33;;;11.07;;
10920;SDS011;5513;50.580;8.818;2022-11-20T03:08:11;15.97;;;10.67;;
10920;SDS011;5513;50.580;8.818;2022-11-20T03:10:40;17.60;;;11.33;;
10920;SDS011;5513;50.580;8.818;2022-11-20T03:13:10;17.90;;;11.53;;
10920;SDS011;5513;50.580;8.818;2022-11-20T03:15:38;16.00;;;10.80;;
10920;SDS011;5513;50.580;8.818;2022-11-20T03:18:07;16.33;;;11.33;;
10920;SDS011;5513;50.580;8.818;2022-11-20T03:20:35;14.87;;;10.73;;
10920;SDS011;5513;50.580;8.818;2022-11-20T03:23:03;17.10;;;11.60;;
10920;SDS011;5513;50.580;8.818;2022-11-20T03:25:31;16.73;;;10.93;;
10920;SDS011;5513;50.580;8.818;2022-11-20T03:28:01;18.03;;;11.73;;
10920;SDS011;5513;50.580;8.818;2022-11-20T03:30:31;17.47;;;11.37;;
10920;SDS011;5513;50.580;8.818;2022-11-20T03:33:00;17.83;;;11.37;;
10920;SDS011;5513;50.580;8.818;2022-11-20T03:35:28;18.37;;;11.40;;
10920;SDS011;5513;50.580;8.818;2022-11-20T03:37:57;17.97;;;11.27;;
10920;SDS011;5513;50.580;8.818;2022-11-20T03:40:25;17.00;;;11.07;;
10920;SDS011;5513;50.580;8.818;2022-11-20T03:42:53;17.83;;;10.80;;
10920;SDS011;5513;50.580;8.818;2022-11-20T03:45:21;17.63;;;11.90;;
10920;SDS011;5513;50.580;8.818;2022-11-20T03:47:52;21.67;;;14.10;;
10920;SDS011;5513;50.580;8.818;2022-11-20T03:50:20;19.73;;;13.33;;
10920;SDS011;5513;50.580;8.818;2022-11-20T03:52:48;17.47;;;11.70;;
10920;SDS011;5513;50.580;8.818;2022-11-20T03:55:17;15.90;;;10.80;;
10920;SDS011;5513;50.580;8.818;2022-11-20T03:57:45;16.43;;;10.73;;
10920;SDS011;5513;50.580;8.818;2022-11-20T04:00:14;16.03;;;11.20;;
10920;SDS011;5513;50.580;8.818;2022-11-20T04:02:43;15.67;;;10.70;;
10920;SDS011;5513;50.580;8.818;2022-11-20T04:05:13;16.80;;;12.17;;
10920;SDS011;5513;50.580;8.818;2022-11-20T04:07:42;18.57;;;11.73;;
10920;SDS011;5513;50.580;8.818;2022-11-20T04:10:10;18.27;;;12.20;;
10920;SDS011;5513;50.580;8.818;2022-11-20T04:12:38;18.50;;;11.93;;
10920;SDS011;5513;50.580;8.818;2022-11-20T04:15:07;18.10;;;11.63;;
10920;SDS011;5513;50.580;8.818;2022-11-20T04:17:36;17.60;;;11.23;;
10920;SDS011;5513;50.580;8.818;2022-11-20T04:20:05;18.33;;;12.17;;
10920;SDS011;5513;50.580;8.818;2022-11-20T04:22:36;17.70;;;11.43;;
10920;SDS011;5513;50.580;8.818;2022-11-20T04:25:05;19.40;;;11.83;;
10920;SDS011;5513;50.580;8.818;2022-11-20T04:27:33;20.03;;;12.90;;
10920;SDS011;5513;50.580;8.818;2022-11-20T04:30:02;20.23;;;12.93;;
10920;SDS011;5513;50.580;8.818;2022-11-20T04:32:31;26.53;;;16.43;;
10920;SDS011;5513;50.580;8.818;2022-11-20T04:35:00;21.40;;;13.00;;
10920;SDS011;5513;50.580;8.818;2022-11-20T04:37:28;20.20;;;12.70;;
10920;SDS011;5513;50.580;8.818;2022-11-20T04:40:00;19.87;;;13.83;;
10920;SDS011;5513;50.580;8.818;2022-11-20T04:42:28;21.03;;;14.00;;
10920;SDS011;5513;50.580;8.818;2022-11-20T04:44:57;18.27;;;12.73;;
10920;SDS011;5513;50.580;8.818;2022-11-20T04:47:26;18.03;;;12.40;;
10920;SDS011;5513;50.580;8.818;2022-11-20T04:49:54;17.53;;;11.97;;
10920;SDS011;5513;50.580;8.818;2022-11-20T04:52:26;23.23;;;12.73;;
10920;SDS011;5513;50.580;8.818;2022-11-20T04:54:55;21.03;;;13.17;;
10920;SDS011;5513;50.580;8.818;2022-11-20T04:57:27;18.57;;;13.00;;
10920;SDS011;5513;50.580;8.818;2022-11-20T04:59:55;19.80;;;13.63;;
10920;SDS011;5513;50.580;8.818;2022-11-20T05:02:24;19.60;;;12.63;;
10920;SDS011;5513;50.580;8.818;2022-11-20T05:04:53;22.23;;;13.83;;
10920;SDS011;5513;50.580;8.818;2022-11-20T05:07:21;32.93;;;20.33;;
10920;SDS011;5513;50.580;8.818;2022-11-20T05:09:51;34.73;;;18.70;;
10920;SDS011;5513;50.580;8.818;2022-11-20T05:12:19;20.03;;;13.70;;
10920;SDS011;5513;50.580;8.818;2022-11-20T05:14:49;20.37;;;13.30;;
10920;SDS011;5513;50.580;8.818;2022-11-20T05:17:17;18.03;;;12.23;;
10920;SDS011;5513;50.580;8.818;2022-11-20T05:19:45;16.97;;;11.67;;
10920;SDS011;5513;50.580;8.818;2022-11-20T05:22:18;20.73;;;11.97;;
10920;SDS011;5513;50.580;8.818;2022-11-20T05:24:49;19.30;;;12.27;;
10920;SDS011;5513;50.580;8.818;2022-11-20T05:27:17;17.53;;;11.63;;
10920;SDS011;5513;50.580;8.818;2022-11-20T05:29:46;18.83;;;12.23;;
10920;SDS011;5513;50.580;8.818;2022-11-20T05:32:15;19.73;;;12.40;;
10920;SDS011;5513;50.580;8.818;2022-11-20T05:34:44;18.13;;;12.00;;
10920;SDS011;5513;50.580;8.818;2022-11-20T05:37:12;21.13;;;12.30;;
10920;SDS011;5513;50.580;8.818;2022-11-20T05:39:41;18.53;;;12.27;;
10920;SDS011;5513;50.580;8.818;2022-11-20T05:42:09;19.40;;;11.77;;
10920;SDS011;5513;50.580;8.818;2022-11-20T05:44:54;22.37;;;12.33;;
10920;SDS011;5513;50.580;8.818;2022-11-20T05:47:25;18.10;;;12.07;;
10920;SDS011;5513;50.580;8.818;2022-11-20T05:49:53;17.80;;;11.43;;
10920;SDS011;5513;50.580;8.818;2022-11-20T05:52:23;18.17;;;12.43;;
10920;SDS011;5513;50.580;8.818;2022-11-20T05:54:52;21.67;;;13.37;;
10920;SDS011;5513;50.580;8.818;2022-11-20T05:57:21;22.37;;;12.90;;
10920;SDS011;5513;50.580;8.818;2022-11-20T05:59:50;18.10;;;12.80;;
10920;SDS011;5513;50.580;8.818;2022-11-20T06:02:18;18.83;;;12.80;;
10920;SDS011;5513;50.580;8.818;2022-11-20T06:04:48;23.57;;;13.63;;
10920;SDS011;5513;50.580;8.818;2022-11-20T06:07:16;19.77;;;13.17;;
10920;SDS011;5513;50.580;8.818;2022-11-20T06:09:45;19.23;;;12.70;;
10920;SDS011;5513;50.580;8.818;2022-11-20T06:12:13;20.00;;;13.60;;
10920;SDS011;5513;50.580;8.818;2022-11-20T06:14:41;19.07;;;12.23;;
10920;SDS011;5513;50.580;8.818;2022-11-20T06:17:10;17.23;;;12.23;;
10920;SDS011;5513;50.580;8.818;2022-11-20T06:19:42;21.13;;;12.90;;
10920;SDS011;5513;50.580;8.818;2022-11-20T06:22:13;20.07;;;12.67;;
10920;SDS011;5513;50.580;8.818;2022-11-20T06:24:41;20.57;;;13.13;;
10920;SDS011;5513;50.580;8.818;2022-11-20T06:27:13;20.67;;;13.13;;
10920;SDS011;5513;50.580;8.818;2022-11-20T06:29:41;20.30;;;13.00;;
10920;SDS011;5513;50.580;8.818;2022-11-20T06:32:11;21.03;;;12.47;;
10920;SDS011;5513;50.580;8.818;2022-11-20T06:34:39;18.53;;;12.77;;
10920;SDS011;5513;50.580;8.818;2022-11-20T06:37:09;20.50;;;12.80;;
10920;SDS011;5513;50.580;8.818;2022-11-20T06:39:41;19.77;;;12.57;;
10920;SDS011;5513;50.580;8.818;2022-11-20T06:42:09;21.43;;;14.00;;
10920;SDS011;5513;50.580;8.818;2022-11-20T06:44:37;20.27;;;12.60;;
10920;SDS011;5513;50.580;8.818;2022-11-20T06:47:05;19.80;;;12.70;;
10920;SDS011;5513;50.580;8.818;2022-11-20T06:49:35;21.07;;;13.40;;
10920;SDS011;5513;50.580;8.818;2022-11-20T06:52:04;19.70;;;12.83;;
10920;SDS011;5513;50.580;8.818;2022-11-20T06:54:34;18.63;;;12.97;;
10920;SDS011;5513;50.580;8.818;2022-11-20T06:57:02;21.23;;;13.33;;
10920;SDS011;5513;50.580;8.818;2022-11-20T06:59:31;20.53;;;13.93;;
10920;SDS011;5513;50.580;8.818;2022-11-20T07:02:00;21.00;;;13.30;;
10920;SDS011;5513;50.580;8.818;2022-11-20T07:04:30;19.37;;;12.70;;
10920;SDS011;5513;50.580;8.818;2022-11-20T07:06:58;22.53;;;13.87;;
10920;SDS011;5513;50.580;8.818;2022-11-20T07:09:30;19.13;;;13.07;;
10920;SDS011;5513;50.580;8.818;2022-11-20T07:12:00;20.40;;;13.43;;
10920;SDS011;5513;50.580;8.818;2022-11-20T07:14:29;21.10;;;13.57;;
10920;SDS011;5513;50.580;8.818;2022-11-20T07:16:57;22.10;;;13.17;;
10920;SDS011;5513;50.580;8.818;2022-11-20T07:19:25;20.63;;;14.03;;
10920;SDS011;5513;50.580;8.818;2022-11-20T07:21:53;21.33;;;13.47;;
10920;SDS011;5513;50.580;8.818;2022-11-20T07:24:22;19.80;;;13.43;;
10920;SDS011;5513;50.580;8.818;2022-11-20T07:26:52;20.63;;;13.77;;
10920;SDS011;5513;50.580;8.818;2022-11-20T07:29:29;23.70;;;14.07;;
10920;SDS011;5513;50.580;8.818;2022-11-20T07:31:57;22.70;;;14.13;;
10920;SDS011;5513;50.580;8.818;2022-11-20T07:34:25;22.10;;;14.17;;
10920;SDS011;5513;50.580;8.818;2022-11-20T07:36:54;18.87;;;13.17;;
10920;SDS011;5513;50.580;8.818;2022-11-20T07:39:22;22.37;;;14.60;;
10920;SDS011;5513;50.580;8.818;2022-11-20T07:41:51;21.13;;;14.23;;
10920;SDS011;5513;50.580;8.818;2022-11-20T07:44:19;23.40;;;14.57;;
10920;SDS011;5513;50.580;8.818;2022-11-20T07:46:50;25.00;;;14.67;;
10920;SDS011;5513;50.580;8.818;2022-11-20T07:49:18;20.70;;;14.03;;
10920;SDS011;5513;50.580;8.818;2022-11-20T07:51:49;22.33;;;14.33;;
10920;SDS011;5513;50.580;8.818;2022-11-20T07:54:17;24.10;;;16.03;;
10920;SDS011;5513;50.580;8.818;2022-11-20T07:56:46;26.60;;;15.63;;
10920;SDS011;5513;50.580;8.818;2022-11-20T07:59:15;27.83;;;17.00;;
10920;SDS011;5513;50.580;8.818;2022-11-20T08:01:43;26.40;;;15.70;;
10920;SDS011;5513;50.580;8.818;2022-11-20T08:04:14;29.47;;;17.13;;
10920;SDS011;5513;50.580;8.818;2022-11-20T08:06:43;32.10;;;17.07;;
10920;SDS011;5513;50.580;8.818;2022-11-20T08:09:11;35.70;;;17.30;;
10920;SDS011;5513;50.580;8.818;2022-11-20T08:11:39;25.90;;;15.77;;
10920;SDS011;5513;50.580;8.818;2022-11-20T08:14:25;22.43;;;14.37;;
10920;SDS011;5513;50.580;8.818;2022-11-20T08:16:55;23.47;;;15.10;;
10920;SDS011;5513;50.580;8.818;2022-11-20T08:19:25;25.93;;;15.90;;
10920;SDS011;5513;50.580;8.818;2022-11-20T08:21:54;24.53;;;16.00;;
10920;SDS011;5513;50.580;8.818;2022-11-20T08:24:23;26.50;;;15.80;;
10920;SDS011;5513;50.580;8.818;2022-11-20T08:26:52;26.80;;;15.90;;
10920;SDS011;5513;50.580;8.818;2022-11-20T08:29:25;26.87;;;15.70;;
10920;SDS011;5513;50.580;8.818;2022-11-20T08:31:54;25.60;;;16.40;;
10920;SDS011;5513;50.580;8.818;2022-11-20T08:34:24;25.43;;;15.93;;
10920;SDS011;5513;50.580;8.818;2022-11-20T08:36:53;25.43;;;16.00;;
10920;SDS011;5513;50.580;8.818;2022-11-20T08:39:21;27.10;;;16.07;;
10920;SDS011;5513;50.580;8.818;2022-11-20T08:41:50;27.77;;;16.73;;
10920;SDS011;5513;50.580;8.818;2022-11-20T08:44:18;28.97;;;17.23;;
10920;SDS011;5513;50.580;8.818;2022-11-20T08:46:47;29.03;;;17.57;;
10920;SDS011;5513;50.580;8.818;2022-11-20T08:49:15;28.43;;;17.67;;
10920;SDS011;5513;50.580;8.818;2022-11-20T08:51:46;31.00;;;17.97;;
10920;SDS011;5513;50.580;8.818;2022-11-20T08:54:18;36.70;;;19.37;;
10920;SDS011;5513;50.580;8.818;2022-11-20T08:56:48;29.53;;;18.80;;
10920;SDS011;5513;50.580;8.818;2022-11-20T08:59:16;31.13;;;18.90;;
10920;SDS011;5513;50.580;8.818;2022-11-20T09:02:05;34.90;;;18.67;;
10920;SDS011;5513;50.580;8.818;2022-11-20T09:04:33;32.47;;;18.83;;
10920;SDS011;5513;50.580;8.818;2022-11-20T09:07:04;33.57;;;18.93;;
10920;SDS011;5513;50.580;8.818;2022-11-20T09:09:33;31.17;;;18.20;;
10920;SDS011;5513;50.580;8.818;2022-11-20T09:12:01;34.70;;;18.87;;
10920;SDS011;5513;50.580;8.818;2022-11-20T09:14:30;31.93;;;19.07;;
10920;SDS011;5513;50.580;8.818;2022-11-20T09:16:58;32.30;;;19.10;;
10920;SDS011;5513;50.580;8.818;2022-11-20T09:19:27;32.20;;;17.87;;
10920;SDS011;5513;50.580;8.818;2022-11-20T09:22:04;34.70;;;18.57;;
10920;SDS011;5513;50.580;8.818;2022-11-20T09:24:32;32.77;;;18.03;;
10920;SDS011;5513;50.580;8.818;2022-11-20T09:27:03;35.13;;;18.90;;
10920;SDS011;5513;50.580;8.818;2022-11-20T09:29:32;32.53;;;19.17;;
10920;SDS011;5513;50.580;8.818;2022-11-20T09:32:01;36.60;;;20.00;;
10920;SDS011;5513;50.580;8.818;2022-11-20T09:34:29;36.10;;;20.00;;
10920;SDS011;5513;50.580;8.818;2022-11-20T09:36:59;33.37;;;18.70;;
10920;SDS011;5513;50.580;8.818;2022-11-20T09:39:34;33.60;;;18.77;;
10920;SDS011;5513;50.580;8.818;2022-11-20T09:42:10;34.87;;;20.37;;
10920;SDS011;5513;50.580;8.818;2022-11-20T09:44:50;35.80;;;19.57;;
10920;SDS011;5513;50.580;8.818;2022-11-20T09:47:32;34.83;;;20.40;;
10920;SDS011;5513;50.580;8.818;2022-11-20T09:50:20;33.47;;;19.67;;
10920;SDS011;5513;50.580;8.818;2022-11-20T09:52:59;31.73;;;18.20;;
10920;SDS011;5513;50.580;8.818;2022-11-20T09:55:40;33.13;;;18.70;;
10920;SDS011;5513;50.580;8.818;2022-11-20T09:58:14;29.23;;;16.53;;
10920;SDS011;5513;50.580;8.818;2022-11-20T10:00:50;27.73;;;15.73;;
10920;SDS011;5513;50.580;8.818;2022-11-20T10:03:25;24.03;;;15.03;;
10920;SDS011;5513;50.580;8.818;2022-11-20T10:06:05;24.57;;;14.60;;
10920;SDS011;5513;50.580;8.818;2022-11-20T10:08:41;25.17;;;14.00;;
10920;SDS011;5513;50.580;8.818;2022-11-20T10:11:16;27.60;;;15.53;;
10920;SDS011;5513;50.580;8.818;2022-11-20T10:13:52;23.70;;;14.40;;
10920;SDS011;5513;50.580;8.818;2022-11-20T10:16:36;24.97;;;13.97;;
10920;SDS011;5513;50.580;8.818;2022-11-20T10:19:16;18.93;;;11.23;;
10920;SDS011;5513;50.580;8.818;2022-11-20T10:21:59;16.77;;;10.83;;
10920;SDS011;5513;50.580;8.818;2022-11-20T10:24:47;18.77;;;11.30;;
10920;SDS011;5513;50.580;8.818;2022-11-20T10:27:26;24.00;;;14.27;;
10920;SDS011;5513;50.580;8.818;2022-11-20T10:30:25;17.83;;;10.87;;
10920;SDS011;5513;50.580;8.818;2022-11-20T10:32:58;20.70;;;12.57;;
10920;SDS011;5513;50.580;8.818;2022-11-20T10:35:33;25.60;;;16.73;;
10920;SDS011;5513;50.580;8.818;2022-11-20T10:38:10;20.87;;;13.03;;
10920;SDS011;5513;50.580;8.818;2022-11-20T10:40:45;18.77;;;11.57;;
10920;SDS011;5513;50.580;8.818;2022-11-20T10:43:19;15.10;;;9.90;;
10920;SDS011;5513;50.580;8.818;2022-11-20T10:45:55;17.13;;;10.37;;
10920;SDS011;5513;50.580;8.818;2022-11-20T10:48:30;17.57;;;11.13;;
10920;SDS011;5513;50.580;8.818;2022-11-20T10:51:07;18.43;;;12.00;;
10920;SDS011;5513;50.580;8.818;2022-11-20T10:53:45;19.27;;;12.00;;
10920;SDS011;5513;50.580;8.818;2022-11-20T10:56:24;18.47;;;11.70;;
10920;SDS011;5513;50.580;8.818;2022-11-20T10:59:04;23.43;;;16.70;;
10920;SDS011;5513;50.580;8.818;2022-11-20T11:01:51;21.03;;;12.43;;
10920;SDS011;5513;50.580;8.818;2022-11-20T11:04:33;18.83;;;12.07;;
10920;SDS011;5513;50.580;8.818;2022-11-20T11:07:07;19.10;;;11.13;;
10920;SDS011;5513;50.580;8.818;2022-11-20T11:09:41;19.30;;;11.67;;
10920;SDS011;5513;50.580;8.818;2022-11-20T11:12:14;17.83;;;11.33;;
10920;SDS011;5513;50.580;8.818;2022-11-20T11:14:45;18.50;;;12.03;;
10920;SDS011;5513;50.580;8.818;2022-11-20T11:17:20;18.83;;;10.93;;
10920;SDS011;5513;50.580;8.818;2022-11-20T11:20:01;28.23;;;17.50;;
10920;SDS011;5513;50.580;8.818;2022-11-20T11:22:32;46.83;;;27.07;;
10920;SDS011;5513;50.580;8.818;2022-11-20T11:25:02;43.33;;;26.53;;
10920;SDS011;5513;50.580;8.818;2022-11-20T11:27:31;20.00;;;12.97;;
10920;SDS011;5513;50.580;8.818;2022-11-20T11:30:13;21.03;;;13.47;;
10920;SDS011;5513;50.580;8.818;2022-11-20T11:32:43;26.37;;;16.43;;
10920;SDS011;5513;50.580;8.818;2022-11-20T11:35:22;22.80;;;14.40;;
10920;SDS011;5513;50.580;8.818;2022-11-20T11:37:53;21.30;;;12.70;;
10920;SDS011;5513;50.580;8.818;2022-11-20T11:40:31;21.00;;;13.30;;
10920;SDS011;5513;50.580;8.818;2022-11-20T11:43:02;17.67;;;10.50;;
10920;SDS011;5513;50.580;8.818;2022-11-20T11:46:02;18.53;;;11.70;;
10920;SDS011;5513;50.580;8.818;2022-11-20T11:48:32;22.13;;;13.17;;
10920;SDS011;5513;50.580;8.818;2022-11-20T11:51:01;20.77;;;12.50;;
10920;SDS011;5513;50.580;8.818;2022-11-20T11:53:29;21.23;;;12.30;;
10920;SDS011;5513;50.580;8.818;2022-11-20T11:56:02;21.70;;;13.33;;
10920;SDS011;5513;50.580;8.818;2022-11-20T11:58:40;23.43;;;12.40;;
10920;SDS011;5513;50.580;8.818;2022-11-20T12:01:20;23.57;;;14.27;;
10920;SDS011;5513;50.580;8.818;2022-11-20T12:03:58;26.33;;;15.27;;
10920;SDS011;5513;50.580;8.818;2022-11-20T12:06:31;20.83;;;12.27;;
10920;SDS011;5513;50.580;8.818;2022-11-20T12:09:08;27.03;;;15.20;;
10920;SDS011;5513;50.580;8.818;2022-11-20T12:11:39;27.17;;;15.10;;
10920;SDS011;5513;50.580;8.818;2022-11-20T12:14:14;24.87;;;14.97;;
10920;SDS011;5513;50.580;8.818;2022-11-20T12:16:51;24.07;;;13.60;;
10920;SDS011;5513;50.580;8.818;2022-11-20T12:19:22;22.67;;;13.80;;
10920;SDS011;5513;50.580;8.818;2022-11-20T12:21:53;22.60;;;13.33;;
10920;SDS011;5513;50.580;8.818;2022-11-20T12:24:35;23.40;;;13.10;;
10920;SDS011;5513;50.580;8.818;2022-11-20T12:27:35;24.07;;;12.90;;
10920;SDS011;5513;50.580;8.818;2022-11-20T12:30:21;21.00;;;12.23;;
10920;SDS011;5513;50.580;8.818;2022-11-20T12:32:59;20.03;;;11.67;;
10920;SDS011;5513;50.580;8.818;2022-11-20T12:41:29;21.97;;;12.53;;
10920;SDS011;5513;50.580;8.818;2022-11-20T12:44:33;23.93;;;12.77;;
10920;SDS011;5513;50.580;8.818;2022-11-20T12:47:38;23.10;;;13.17;;
10920;SDS011;5513;50.580;8.818;2022-11-20T12:50:22;23.57;;;13.07;;
10920;SDS011;5513;50.580;8.818;2022-11-20T12:53:23;26.70;;;13.97;;
10920;SDS011;5513;50.580;8.818;2022-11-20T12:56:03;24.47;;;13.93;;
10920;SDS011;5513;50.580;8.818;2022-11-20T12:58:46;22.30;;;12.83;;
10920;SDS011;5513;50.580;8.818;2022-11-20T13:01:25;26.23;;;14.10;;
10920;SDS011;5513;50.580;8.818;2022-11-20T13:04:15;27.63;;;15.40;;
10920;SDS011;5513;50.580;8.818;2022-11-20T13:06:54;30.77;;;17.50;;
10920;SDS011;5513;50.580;8.818;2022-11-20T13:09:23;42.40;;;22.07;;
10920;SDS011;5513;50.580;8.818;2022-11-20T13:11:55;30.40;;;15.23;;
10920;SDS011;5513;50.580;8.818;2022-11-20T13:14:34;26.93;;;15.43;;
10920;SDS011;5513;50.580;8.818;2022-11-20T13:17:09;27.10;;;14.33;;
10920;SDS011;5513;50.580;8.818;2022-11-20T13:19:47;33.23;;;17.20;;
10920;SDS011;5513;50.580;8.818;2022-11-20T13:22:25;33.63;;;18.13;;
10920;SDS011;5513;50.580;8.818;2022-11-20T13:24:54;32.93;;;16.93;;
10920;SDS011;5513;50.580;8.818;2022-11-20T13:27:24;27.80;;;14.97;;
10920;SDS011;5513;50.580;8.818;2022-11-20T13:29:59;28.33;;;16.07;;
10920;SDS011;5513;50.580;8.818;2022-11-20T13:32:31;29.93;;;15.73;;
10920;SDS011;5513;50.580;8.818;2022-11-20T13:34:59;31.43;;;15.97;;
10920;SDS011;5513;50.580;8.818;2022-11-20T13:37:32;30.47;;;16.20;;
10920;SDS011;5513;50.580;8.818;2022-11-20T13:40:11;29.37;;;15.53;;
10920;SDS011;5513;50.580;8.818;2022-11-20T13:43:00;27.60;;;14.90;;
10920;SDS011;5513;50.580;8.818;2022-11-20T13:45:32;28.63;;;16.07;;
10920;SDS011;5513;50.580;8.818;2022-11-20T13:48:01;29.57;;;15.70;;
10920;SDS011;5513;50.580;8.818;2022-11-20T13:50:40;27.10;;;15.17;;
10920;SDS011;5513;50.580;8.818;2022-11-20T13:53:23;25.17;;;14.47;;
10920;SDS011;5513;50.580;8.818;2022-11-20T13:56:07;26.93;;;15.00;;
10920;SDS011;5513;50.580;8.818;2022-11-20T13:58:47;27.37;;;15.57;;
10920;SDS011;5513;50.580;8.818;2022-11-20T14:01:23;27.27;;;15.23;;
10920;SDS011;5513;50.580;8.818;2022-11-20T14:03:53;26.70;;;14.83;;
10920;SDS011;5513;50.580;8.818;2022-11-20T14:06:32;28.17;;;14.43;;
10920;SDS011;5513;50.580;8.818;2022-11-20T14:09:12;30.63;;;15.80;;
10920;SDS011;5513;50.580;8.818;2022-11-20T14:11:52;26.63;;;14.73;;
10920;SDS011;5513;50.580;8.818;2022-11-20T14:14:22;31.53;;;16.80;;
10920;SDS011;5513;50.580;8.818;2022-11-20T14:16:52;26.80;;;14.90;;
10920;SDS011;5513;50.580;8.818;2022-11-20T14:19:32;28.67;;;16.20;;
10920;SDS011;5513;50.580;8.818;2022-11-20T14:22:07;29.13;;;16.70;;
10920;SDS011;5513;50.580;8.818;2022-11-20T14:24:41;31.67;;;17.60;;
10920;SDS011;5513;50.580;8.818;2022-11-20T14:27:11;26.30;;;15.07;;
10920;SDS011;5513;50.580;8.818;2022-11-20T14:29:41;24.80;;;14.20;;
10920;SDS011;5513;50.580;8.818;2022-11-20T14:32:11;27.93;;;15.23;;
10920;SDS011;5513;50.580;8.818;2022-11-20T14:34:44;27.30;;;15.13;;
10920;SDS011;5513;50.580;8.818;2022-11-20T14:37:17;27.70;;;14.50;;
10920;SDS011;5513;50.580;8.818;2022-11-20T14:39:53;29.03;;;15.63;;
10920;SDS011;5513;50.580;8.818;2022-11-20T14:42:23;26.97;;;15.00;;
10920;SDS011;5513;50.580;8.818;2022-11-20T14:44:54;29.47;;;15.97;;
10920;SDS011;5513;50.580;8.818;2022-11-20T14:47:27;27.17;;;14.40;;
10920;SDS011;5513;50.580;8.818;2022-11-20T14:49:58;25.17;;;13.80;;
10920;SDS011;5513;50.580;8.818;2022-11-20T14:52:35;24.87;;;14.43;;
10920;SDS011;5513;50.580;8.818;2022-11-20T14:55:07;25.47;;;14.73;;
10920;SDS011;5513;50.580;8.818;2022-11-20T14:57:41;27.70;;;15.47;;
10920;SDS011;5513;50.580;8.818;2022-11-20T15:00:18;26.00;;;15.47;;
10920;SDS011;5513;50.580;8.818;2022-11-20T15:02:49;27.47;;;15.93;;
10920;SDS011;5513;50.580;8.818;2022-11-20T15:05:19;26.90;;;14.83;;
10920;SDS011;5513;50.580;8.818;2022-11-20T15:07:50;31.60;;;17.57;;
10920;SDS011;5513;50.580;8.818;2022-11-20T15:10:24;32.03;;;17.10;;
10920;SDS011;5513;50.580;8.818;2022-11-20T15:12:54;29.83;;;17.00;;